sensor_id;sensor_type;location;lat;lon;timestamp;pressure;altitude;pressure_sealevel;temperature;humidity
76095;BME280;64821;13.710;100.604;2024-02-28T00:00:12;101125.31;;;43.27;32.56
76095;BME280;64821;13.710;100.604;2024-02-28T00:01:16;101123.72;;;43.29;32.04
76095;BME280;64821;13.710;100.604;2024-02-28T00:02:21;101115.31;;;43.22;32.12
76095;BME280;64821;13.710;100.604;2024-02-28T00:03:25;101126.91;;;43.28;32.19
76095;BME280;64821;13.710;100.604;2024-02-28T00:04:29;101130.88;;;43.30;31.70
76095;BME280;64821;13.710;100.604;2024-02-28T00:05:33;101094.06;;;43.07;31.53
76095;BME280;64821;13.710;100.604;2024-02-28T00:06:37;101111.72;;;43.22;31.49
76095;BME280;64821;13.710;100.604;2024-02-28T00:07:41;101116.09;;;43.23;31.51
76095;BME280;64821;13.710;100.604;2024-02-28T00:08:46;101125.34;;;43.34;31.97
76095;BME280;64821;13.710;100.604;2024-02-28T00:09:50;101130.13;;;43.33;31.34
76095;BME280;64821;13.710;100.604;2024-02-28T00:10:54;101124.53;;;43.33;31.64
76095;BME280;64821;13.710;100.604;2024-02-28T00:11:58;101134.94;;;43.36;31.62
76095;BME280;64821;13.710;100.604;2024-02-28T00:13:03;101132.91;;;43.33;31.91
76095;BME280;64821;13.710;100.604;2024-02-28T00:14:07;101137.72;;;43.36;32.00
76095;BME280;64821;13.710;100.604;2024-02-28T00:15:13;101140.13;;;43.38;32.02
76095;BME280;64821;13.710;100.604;2024-02-28T00:16:17;101136.16;;;43.39;31.61
76095;BME280;64821;13.710;100.604;2024-02-28T00:17:21;101143.28;;;43.40;31.55
76095;BME280;64821;13.710;100.604;2024-02-28T00:18:25;101122.13;;;43.28;31.85
76095;BME280;64821;13.710;100.604;2024-02-28T00:19:29;101136.53;;;43.37;31.92
76095;BME280;64821;13.710;100.604;2024-02-28T00:20:33;101139.34;;;43.44;32.11
76095;BME280;64821;13.710;100.604;2024-02-28T00:21:37;101138.16;;;43.49;31.61
76095;BME280;64821;13.710;100.604;2024-02-28T00:22:42;101131.41;;;43.50;31.87
76095;BME280;64821;13.710;100.604;2024-02-28T00:23:47;101136.28;;;43.57;31.74
76095;BME280;64821;13.710;100.604;2024-02-28T00:24:51;101130.31;;;43.58;31.38
76095;BME280;64821;13.710;100.604;2024-02-28T00:25:55;101125.53;;;43.62;31.55
76095;BME280;64821;13.710;100.604;2024-02-28T00:26:59;101136.31;;;43.71;31.33
76095;BME280;64821;13.710;100.604;2024-02-28T00:28:04;101134.38;;;43.78;31.21
76095;BME280;64821;13.710;100.604;2024-02-28T00:29:08;101128.81;;;43.82;31.34
76095;BME280;64821;13.710;100.604;2024-02-28T00:30:15;101134.81;;;43.84;31.91
76095;BME280;64821;13.710;100.604;2024-02-28T00:31:20;101129.22;;;43.84;31.00
76095;BME280;64821;13.710;100.604;2024-02-28T00:32:24;101134.03;;;43.90;30.96
76095;BME280;64821;13.710;100.604;2024-02-28T00:33:28;101124.44;;;43.88;31.32
76095;BME280;64821;13.710;100.604;2024-02-28T00:34:33;101118.47;;;43.86;30.82
76095;BME280;64821;13.710;100.604;2024-02-28T00:35:37;101135.28;;;43.97;31.01
76095;BME280;64821;13.710;100.604;2024-02-28T00:36:44;101134.09;;;43.98;30.84
76095;BME280;64821;13.710;100.604;2024-02-28T00:37:58;101132.88;;;43.99;31.21
76095;BME280;64821;13.710;100.604;2024-02-28T00:39:03;101128.91;;;43.96;31.01
76095;BME280;64821;13.710;100.604;2024-02-28T00:40:09;101096.47;;;43.70;31.44
76095;BME280;64821;13.710;100.604;2024-02-28T00:41:13;101128.06;;;43.92;31.38
76095;BME280;64821;13.710;100.604;2024-02-28T00:42:18;101132.06;;;43.98;31.21
76095;BME280;64821;13.710;100.604;2024-02-28T00:43:22;101130.81;;;43.88;31.40
76095;BME280;64821;13.710;100.604;2024-02-28T00:44:26;101140.81;;;43.93;31.13
76095;BME280;64821;13.710;100.604;2024-02-28T00:45:32;101099.63;;;43.65;31.17
76095;BME280;64821;13.710;100.604;2024-02-28T00:46:36;101133.25;;;43.94;31.44
76095;BME280;64821;13.710;100.604;2024-02-28T00:47:40;101137.63;;;43.95;31.31
76095;BME280;64821;13.710;100.604;2024-02-28T00:48:44;101134.50;;;43.96;31.04
76095;BME280;64821;13.710;100.604;2024-02-28T00:49:48;101132.88;;;43.99;30.97
76095;BME280;64821;13.710;100.604;2024-02-28T00:50:53;101125.72;;;43.98;31.24
76095;BME280;64821;13.710;100.604;2024-02-28T00:51:57;101131.31;;;44.05;31.18
76095;BME280;64821;13.710;100.604;2024-02-28T00:53:01;101132.91;;;44.09;31.26
76095;BME280;64821;13.710;100.604;2024-02-28T00:54:05;101147.28;;;44.11;31.23
76095;BME280;64821;13.710;100.604;2024-02-28T00:55:09;101146.91;;;44.16;31.05
76095;BME280;64821;13.710;100.604;2024-02-28T00:56:13;101115.75;;;44.00;31.10
76095;BME280;64821;13.710;100.604;2024-02-28T00:57:18;101144.91;;;44.20;31.22
76095;BME280;64821;13.710;100.604;2024-02-28T00:58:22;101150.50;;;44.20;31.08
76095;BME280;64821;13.710;100.604;2024-02-28T00:59:26;101141.72;;;44.18;30.97
76095;BME280;64821;13.710;100.604;2024-02-28T01:00:31;101149.69;;;44.13;31.38
76095;BME280;64821;13.710;100.604;2024-02-28T01:01:36;101132.94;;;44.06;31.10
76095;BME280;64821;13.710;100.604;2024-02-28T01:02:41;101147.31;;;44.15;31.21
76095;BME280;64821;13.710;100.604;2024-02-28T01:03:45;101149.69;;;44.20;31.14
76095;BME280;64821;13.710;100.604;2024-02-28T01:04:49;101152.50;;;44.20;31.15
76095;BME280;64821;13.710;100.604;2024-02-28T01:05:53;101108.13;;;43.94;31.06
76095;BME280;64821;13.710;100.604;2024-02-28T01:06:58;101146.50;;;44.14;31.05
76095;BME280;64821;13.710;100.604;2024-02-28T01:08:02;101154.88;;;44.11;31.11
76095;BME280;64821;13.710;100.604;2024-02-28T01:09:07;101150.09;;;44.15;30.89
76095;BME280;64821;13.710;100.604;2024-02-28T01:10:11;101154.50;;;44.19;31.01
76095;BME280;64821;13.710;100.604;2024-02-28T01:11:15;101168.88;;;44.21;31.07
76095;BME280;64821;13.710;100.604;2024-02-28T01:12:19;101157.28;;;44.19;31.06
76095;BME280;64821;13.710;100.604;2024-02-28T01:13:23;101116.06;;;43.88;31.13
76095;BME280;64821;13.710;100.604;2024-02-28T01:14:28;101142.09;;;44.03;30.89
76095;BME280;64821;13.710;100.604;2024-02-28T01:15:33;101133.69;;;43.99;31.38
76095;BME280;64821;13.710;100.604;2024-02-28T01:16:37;101158.09;;;44.16;30.98
76095;BME280;64821;13.710;100.604;2024-02-28T01:17:41;101153.69;;;44.15;30.84
76095;BME280;64821;13.710;100.604;2024-02-28T01:18:46;101155.69;;;44.15;31.04
76095;BME280;64821;13.710;100.604;2024-02-28T01:19:50;101151.28;;;44.17;31.14
76095;BME280;64821;13.710;100.604;2024-02-28T01:20:54;101150.91;;;44.19;31.22
76095;BME280;64821;13.710;100.604;2024-02-28T01:21:59;101146.13;;;44.30;30.77
76095;BME280;64821;13.710;100.604;2024-02-28T01:23:03;101154.97;;;44.36;30.81
76095;BME280;64821;13.710;100.604;2024-02-28T01:24:07;101150.59;;;44.42;30.71
76095;BME280;64821;13.710;100.604;2024-02-28T01:25:11;101155.38;;;44.48;30.78
76095;BME280;64821;13.710;100.604;2024-02-28T01:26:15;101146.19;;;44.41;30.75
76095;BME280;64821;13.710;100.604;2024-02-28T01:27:19;101160.19;;;44.44;31.04
76095;BME280;64821;13.710;100.604;2024-02-28T01:28:23;101144.94;;;44.31;30.88
76095;BME280;64821;13.710;100.604;2024-02-28T01:29:27;101162.16;;;44.47;30.85
76095;BME280;64821;13.710;100.604;2024-02-28T01:30:33;101170.19;;;44.56;30.57
76095;BME280;64821;13.710;100.604;2024-02-28T01:31:37;101167.78;;;44.58;30.51
76095;BME280;64821;13.710;100.604;2024-02-28T01:32:41;101160.63;;;44.64;30.57
76095;BME280;64821;13.710;100.604;2024-02-28T01:33:45;101165.81;;;44.66;30.45
76095;BME280;64821;13.710;100.604;2024-02-28T01:34:49;101144.22;;;44.48;30.72
76095;BME280;64821;13.710;100.604;2024-02-28T01:35:53;101161.81;;;44.63;30.48
76095;BME280;64821;13.710;100.604;2024-02-28T01:37:01;101156.22;;;44.56;30.76
76095;BME280;64821;13.710;100.604;2024-02-28T01:38:05;101159.78;;;44.56;30.81
76095;BME280;64821;13.710;100.604;2024-02-28T01:39:09;101164.97;;;44.58;30.75
76095;BME280;64821;13.710;100.604;2024-02-28T01:40:14;101164.59;;;44.56;30.77
76095;BME280;64821;13.710;100.604;2024-02-28T01:41:18;101172.97;;;44.59;30.88
76095;BME280;64821;13.710;100.604;2024-02-28T01:42:22;101139.00;;;44.47;30.53
76095;BME280;64821;13.710;100.604;2024-02-28T01:43:26;101162.59;;;44.63;30.52
76095;BME280;64821;13.710;100.604;2024-02-28T01:44:30;101163.78;;;44.59;30.62
76095;BME280;64821;13.710;100.604;2024-02-28T01:45:36;101161.78;;;44.59;30.63
76095;BME280;64821;13.710;100.604;2024-02-28T01:46:40;101117.81;;;44.32;30.62
76095;BME280;64821;13.710;100.604;2024-02-28T01:47:44;101157.41;;;44.69;30.36
76095;BME280;64821;13.710;100.604;2024-02-28T01:48:48;101159.84;;;44.78;30.21
76095;BME280;64821;13.710;100.604;2024-02-28T01:49:52;101171.41;;;44.87;30.17
76095;BME280;64821;13.710;100.604;2024-02-28T01:50:57;101168.25;;;44.81;30.46
76095;BME280;64821;13.710;100.604;2024-02-28T01:52:01;101163.44;;;44.89;30.20
76095;BME280;64821;13.710;100.604;2024-02-28T01:53:07;101165.84;;;44.97;30.15
76095;BME280;64821;13.710;100.604;2024-02-28T01:54:12;101165.03;;;45.04;30.16
76095;BME280;64821;13.710;100.604;2024-02-28T01:55:17;101162.28;;;45.11;29.88
76095;BME280;64821;13.710;100.604;2024-02-28T01:56:23;101148.28;;;45.04;29.75
76095;BME280;64821;13.710;100.604;2024-02-28T01:57:27;101127.91;;;44.75;29.87
76095;BME280;64821;13.710;100.604;2024-02-28T01:58:32;101165.84;;;44.94;30.04
76095;BME280;64821;13.710;100.604;2024-02-28T01:59:37;101143.06;;;44.78;30.27
76095;BME280;64821;13.710;100.604;2024-02-28T02:00:43;101173.84;;;44.92;29.80
76095;BME280;64821;13.710;100.604;2024-02-28T02:01:48;101167.44;;;44.98;29.86
76095;BME280;64821;13.710;100.604;2024-02-28T02:02:53;101176.22;;;45.08;30.00
76095;BME280;64821;13.710;100.604;2024-02-28T02:03:57;101167.47;;;45.13;29.97
76095;BME280;64821;13.710;100.604;2024-02-28T02:05:01;101176.66;;;45.20;29.83
76095;BME280;64821;13.710;100.604;2024-02-28T02:06:05;101177.44;;;45.31;29.58
76095;BME280;64821;13.710;100.604;2024-02-28T02:07:10;101183.81;;;45.39;29.83
76095;BME280;64821;13.710;100.604;2024-02-28T02:08:14;101184.97;;;45.45;29.80
76095;BME280;64821;13.710;100.604;2024-02-28T02:09:18;101179.38;;;45.49;29.49
76095;BME280;64821;13.710;100.604;2024-02-28T02:10:23;101179.81;;;45.54;29.47
76095;BME280;64821;13.710;100.604;2024-02-28T02:11:28;101184.19;;;45.59;28.79
76095;BME280;64821;13.710;100.604;2024-02-28T02:12:33;101188.16;;;45.65;29.41
76095;BME280;64821;13.710;100.604;2024-02-28T02:13:48;101183.34;;;45.80;28.33
76095;BME280;64821;13.710;100.604;2024-02-28T02:14:52;101182.13;;;45.81;28.89
76095;BME280;64821;13.710;100.604;2024-02-28T02:15:58;101184.13;;;45.80;28.75
76095;BME280;64821;13.710;100.604;2024-02-28T02:17:03;101166.59;;;45.62;29.26
76095;BME280;64821;13.710;100.604;2024-02-28T02:18:07;101185.34;;;45.76;29.01
76095;BME280;64821;13.710;100.604;2024-02-28T02:19:11;101137.84;;;45.40;29.37
76095;BME280;64821;13.710;100.604;2024-02-28T02:20:16;101188.94;;;45.83;29.11
76095;BME280;64821;13.710;100.604;2024-02-28T02:21:23;101185.72;;;45.74;28.56
76095;BME280;64821;13.710;100.604;2024-02-28T02:22:33;101199.28;;;45.86;28.59
76095;BME280;64821;13.710;100.604;2024-02-28T02:23:37;101176.94;;;45.76;29.18
76095;BME280;64821;13.710;100.604;2024-02-28T02:24:41;101187.69;;;45.84;28.71
76095;BME280;64821;13.710;100.604;2024-02-28T02:25:46;101198.13;;;45.87;29.25
76095;BME280;64821;13.710;100.604;2024-02-28T02:26:54;101196.16;;;45.70;28.84
76095;BME280;64821;13.710;100.604;2024-02-28T02:27:58;101195.78;;;45.61;29.38
76095;BME280;64821;13.710;100.604;2024-02-28T02:29:02;101193.00;;;45.57;29.38
76095;BME280;64821;13.710;100.604;2024-02-28T02:30:07;101169.81;;;45.53;29.07
76095;BME280;64821;13.710;100.604;2024-02-28T02:31:13;101146.63;;;45.35;29.20
76095;BME280;64821;13.710;100.604;2024-02-28T02:32:17;101190.13;;;45.75;29.21
76095;BME280;64821;13.710;100.604;2024-02-28T02:33:21;101195.31;;;45.80;29.20
76095;BME280;64821;13.710;100.604;2024-02-28T02:34:25;101198.91;;;45.84;28.93
76095;BME280;64821;13.710;100.604;2024-02-28T02:35:29;101192.94;;;45.82;28.92
76095;BME280;64821;13.710;100.604;2024-02-28T02:36:33;101168.94;;;45.74;29.08
76095;BME280;64821;13.710;100.604;2024-02-28T02:37:43;101195.69;;;46.00;27.89
76095;BME280;64821;13.710;100.604;2024-02-28T02:38:47;101192.03;;;46.06;28.34
76095;BME280;64821;13.710;100.604;2024-02-28T02:39:52;101179.69;;;46.00;28.24
76095;BME280;64821;13.710;100.604;2024-02-28T02:40:56;101194.03;;;46.06;28.53
76095;BME280;64821;13.710;100.604;2024-02-28T02:42:00;101194.03;;;46.13;28.54
76095;BME280;64821;13.710;100.604;2024-02-28T02:43:05;101182.03;;;46.13;28.22
76095;BME280;64821;13.710;100.604;2024-02-28T02:44:09;101166.84;;;46.10;28.20
76095;BME280;64821;13.710;100.604;2024-02-28T02:45:13;101156.84;;;46.05;28.05
76095;BME280;64821;13.710;100.604;2024-02-28T02:46:18;101174.34;;;46.24;27.99
76095;BME280;64821;13.710;100.604;2024-02-28T02:47:22;101188.31;;;46.34;28.27
76095;BME280;64821;13.710;100.604;2024-02-28T02:48:27;101177.56;;;46.22;28.41
76095;BME280;64821;13.710;100.604;2024-02-28T02:49:31;101193.53;;;46.36;27.74
76095;BME280;64821;13.710;100.604;2024-02-28T02:50:35;101196.72;;;46.34;28.13
76095;BME280;64821;13.710;100.604;2024-02-28T02:51:39;101194.31;;;46.33;28.35
76095;BME280;64821;13.710;100.604;2024-02-28T02:52:45;101182.84;;;46.10;28.16
76095;BME280;64821;13.710;100.604;2024-02-28T02:53:49;101193.66;;;46.04;28.90
76095;BME280;64821;13.710;100.604;2024-02-28T02:54:53;101190.84;;;46.08;28.77
76095;BME280;64821;13.710;100.604;2024-02-28T02:55:57;101185.69;;;46.02;28.69
76095;BME280;64821;13.710;100.604;2024-02-28T02:57:01;101192.47;;;46.01;28.63
76095;BME280;64821;13.710;100.604;2024-02-28T02:58:06;101195.25;;;46.09;28.61
76095;BME280;64821;13.710;100.604;2024-02-28T02:59:10;101164.13;;;45.92;28.56
76095;BME280;64821;13.710;100.604;2024-02-28T03:00:14;101195.59;;;46.21;28.28
76095;BME280;64821;13.710;100.604;2024-02-28T03:01:19;101193.97;;;46.31;27.89
76095;BME280;64821;13.710;100.604;2024-02-28T03:02:23;101195.13;;;46.37;27.83
76095;BME280;64821;13.710;100.604;2024-02-28T03:03:27;101195.13;;;46.40;27.91
76095;BME280;64821;13.710;100.604;2024-02-28T03:04:32;101175.94;;;46.32;28.16
76095;BME280;64821;13.710;100.604;2024-02-28T03:05:36;101195.84;;;46.48;27.59
76095;BME280;64821;13.710;100.604;2024-02-28T03:06:40;101194.66;;;46.49;27.95
76095;BME280;64821;13.710;100.604;2024-02-28T03:07:46;101195.41;;;46.53;27.07
76095;BME280;64821;13.710;100.604;2024-02-28T03:08:50;101197.06;;;46.43;27.88
76095;BME280;64821;13.710;100.604;2024-02-28T03:09:54;101191.53;;;46.33;28.04
76095;BME280;64821;13.710;100.604;2024-02-28T03:10:58;101172.78;;;46.16;27.93
76095;BME280;64821;13.710;100.604;2024-02-28T03:12:03;101173.22;;;46.11;28.07
76095;BME280;64821;13.710;100.604;2024-02-28T03:13:07;101196.75;;;46.24;27.93
76095;BME280;64821;13.710;100.604;2024-02-28T03:14:11;101185.19;;;46.15;28.21
76095;BME280;64821;13.710;100.604;2024-02-28T03:15:15;101198.78;;;46.27;28.15
76095;BME280;64821;13.710;100.604;2024-02-28T03:16:20;101202.34;;;46.24;27.77
76095;BME280;64821;13.710;100.604;2024-02-28T03:17:24;101196.41;;;46.18;28.18
76095;BME280;64821;13.710;100.604;2024-02-28T03:18:28;101186.38;;;46.28;27.72
76095;BME280;64821;13.710;100.604;2024-02-28T03:19:32;101197.88;;;46.44;27.73
76095;BME280;64821;13.710;100.604;2024-02-28T03:20:36;101194.66;;;46.46;28.05
76095;BME280;64821;13.710;100.604;2024-02-28T03:21:40;101193.06;;;46.48;27.83
76095;BME280;64821;13.710;100.604;2024-02-28T03:22:46;101192.66;;;46.50;26.49
76095;BME280;64821;13.710;100.604;2024-02-28T03:23:50;101199.44;;;46.52;27.71
76095;BME280;64821;13.710;100.604;2024-02-28T03:24:55;101198.25;;;46.50;27.32
76095;BME280;64821;13.710;100.604;2024-02-28T03:25:59;101194.31;;;46.33;28.16
76095;BME280;64821;13.710;100.604;2024-02-28T03:27:03;101193.56;;;46.29;27.72
76095;BME280;64821;13.710;100.604;2024-02-28T03:28:07;101197.13;;;46.33;27.60
76095;BME280;64821;13.710;100.604;2024-02-28T03:29:11;101181.56;;;46.32;28.31
76095;BME280;64821;13.710;100.604;2024-02-28T03:30:15;101191.91;;;46.42;28.18
76095;BME280;64821;13.710;100.604;2024-02-28T03:31:20;101191.13;;;46.38;28.29
76095;BME280;64821;13.710;100.604;2024-02-28T03:32:24;101167.56;;;46.28;27.92
76095;BME280;64821;13.710;100.604;2024-02-28T03:33:28;101185.97;;;46.29;27.91
76095;BME280;64821;13.710;100.604;2024-02-28T03:34:32;101188.78;;;46.19;28.19
76095;BME280;64821;13.710;100.604;2024-02-28T03:35:36;101190.00;;;46.14;28.27
76095;BME280;64821;13.710;100.604;2024-02-28T03:36:40;101186.78;;;46.16;27.99
76095;BME280;64821;13.710;100.604;2024-02-28T03:37:46;101181.19;;;46.19;27.58
76095;BME280;64821;13.710;100.604;2024-02-28T03:38:50;101191.16;;;46.31;27.60
76095;BME280;64821;13.710;100.604;2024-02-28T03:39:55;101184.31;;;46.39;27.88
76095;BME280;64821;13.710;100.604;2024-02-28T03:40:59;101182.25;;;46.50;27.77
76095;BME280;64821;13.710;100.604;2024-02-28T03:42:03;101167.03;;;46.44;27.59
76095;BME280;64821;13.710;100.604;2024-02-28T03:43:07;101178.25;;;46.44;27.37
76095;BME280;64821;13.710;100.604;2024-02-28T03:44:11;101175.50;;;46.33;27.74
76095;BME280;64821;13.710;100.604;2024-02-28T03:45:15;101181.56;;;46.25;27.68
76095;BME280;64821;13.710;100.604;2024-02-28T03:46:19;101183.97;;;46.23;28.13
76095;BME280;64821;13.710;100.604;2024-02-28T03:47:23;101182.78;;;46.20;27.54
76095;BME280;64821;13.710;100.604;2024-02-28T03:48:27;101188.00;;;46.18;27.98
76095;BME280;64821;13.710;100.604;2024-02-28T03:49:31;101178.78;;;46.18;27.74
76095;BME280;64821;13.710;100.604;2024-02-28T03:50:35;101187.97;;;46.25;27.85
76095;BME280;64821;13.710;100.604;2024-02-28T03:51:40;101185.97;;;46.26;27.50
76095;BME280;64821;13.710;100.604;2024-02-28T03:52:46;101180.75;;;46.24;27.12
76095;BME280;64821;13.710;100.604;2024-02-28T03:53:50;101178.41;;;46.16;27.98
76095;BME280;64821;13.710;100.604;2024-02-28T03:54:54;101177.22;;;46.13;27.81
76095;BME280;64821;13.710;100.604;2024-02-28T03:55:59;101173.22;;;46.11;27.81
76095;BME280;64821;13.710;100.604;2024-02-28T03:57:03;101169.63;;;46.10;28.12
76095;BME280;64821;13.710;100.604;2024-02-28T03:58:07;101175.25;;;46.06;28.05
76095;BME280;64821;13.710;100.604;2024-02-28T03:59:11;101166.84;;;46.10;27.82
76095;BME280;64821;13.710;100.604;2024-02-28T04:00:15;101168.38;;;46.15;27.52
76095;BME280;64821;13.710;100.604;2024-02-28T04:01:20;101155.22;;;46.04;27.61
76095;BME280;64821;13.710;100.604;2024-02-28T04:02:24;101160.78;;;46.15;28.18
76095;BME280;64821;13.710;100.604;2024-02-28T04:03:28;101161.63;;;46.12;28.14
76095;BME280;64821;13.710;100.604;2024-02-28T04:04:32;101154.38;;;46.18;27.38
76095;BME280;64821;13.710;100.604;2024-02-28T04:05:36;101158.34;;;46.28;27.51
76095;BME280;64821;13.710;100.604;2024-02-28T04:06:40;101154.75;;;46.31;27.85
76095;BME280;64821;13.710;100.604;2024-02-28T04:07:46;101164.75;;;46.32;27.42
76095;BME280;64821;13.710;100.604;2024-02-28T04:08:50;101147.53;;;46.26;27.82
76095;BME280;64821;13.710;100.604;2024-02-28T04:09:55;101153.91;;;46.34;27.21
76095;BME280;64821;13.710;100.604;2024-02-28T04:10:59;101149.50;;;46.33;27.63
76095;BME280;64821;13.710;100.604;2024-02-28T04:12:04;101148.75;;;46.29;27.65
76095;BME280;64821;13.710;100.604;2024-02-28T04:13:08;101151.94;;;46.27;28.01
76095;BME280;64821;13.710;100.604;2024-02-28T04:14:12;101134.75;;;46.18;27.89
76095;BME280;64821;13.710;100.604;2024-02-28T04:15:16;101146.31;;;46.24;28.10
76095;BME280;64821;13.710;100.604;2024-02-28T04:16:20;101110.47;;;46.01;27.84
76095;BME280;64821;13.710;100.604;2024-02-28T04:17:24;101138.78;;;46.17;27.93
76095;BME280;64821;13.710;100.604;2024-02-28T04:18:28;101138.81;;;46.10;27.70
76095;BME280;64821;13.710;100.604;2024-02-28T04:19:33;101146.41;;;46.13;27.76
76095;BME280;64821;13.710;100.604;2024-02-28T04:20:37;101146.41;;;46.10;27.76
76095;BME280;64821;13.710;100.604;2024-02-28T04:21:41;101111.72;;;45.89;28.09
76095;BME280;64821;13.710;100.604;2024-02-28T04:22:47;101139.63;;;46.03;27.81
76095;BME280;64821;13.710;100.604;2024-02-28T04:23:52;101139.28;;;46.01;27.53
76095;BME280;64821;13.710;100.604;2024-02-28T04:25:21;101131.19;;;46.14;27.12
76095;BME280;64821;13.710;100.604;2024-02-28T04:26:25;101130.47;;;45.99;27.97
76095;BME280;64821;13.710;100.604;2024-02-28T04:27:29;101132.13;;;45.93;28.13
76095;BME280;64821;13.710;100.604;2024-02-28T04:28:33;101123.28;;;45.84;27.84
76095;BME280;64821;13.710;100.604;2024-02-28T04:29:38;101113.78;;;45.71;28.34
76095;BME280;64821;13.710;100.604;2024-02-28T04:30:42;101120.16;;;45.75;28.13
76095;BME280;64821;13.710;100.604;2024-02-28T04:31:47;101125.38;;;45.69;28.30
76095;BME280;64821;13.710;100.604;2024-02-28T04:32:51;101119.38;;;45.67;28.53
76095;BME280;64821;13.710;100.604;2024-02-28T04:33:55;101115.38;;;45.68;28.21
76095;BME280;64821;13.710;100.604;2024-02-28T04:34:59;101116.22;;;45.62;27.97
76095;BME280;64821;13.710;100.604;2024-02-28T04:36:04;101109.78;;;45.65;28.24
76095;BME280;64821;13.710;100.604;2024-02-28T04:37:08;101112.97;;;45.67;28.42
76095;BME280;64821;13.710;100.604;2024-02-28T04:38:14;101081.03;;;45.57;28.04
76095;BME280;64821;13.710;100.604;2024-02-28T04:39:18;101102.50;;;45.85;28.11
76095;BME280;64821;13.710;100.604;2024-02-28T04:40:23;101106.09;;;45.86;27.74
76095;BME280;64821;13.710;100.604;2024-02-28T04:41:27;101108.94;;;45.79;27.74
76095;BME280;64821;13.710;100.604;2024-02-28T04:42:31;101104.13;;;45.79;28.25
76095;BME280;64821;13.710;100.604;2024-02-28T04:43:35;101105.34;;;45.78;28.31
76095;BME280;64821;13.710;100.604;2024-02-28T04:44:39;101104.97;;;45.73;28.13
76095;BME280;64821;13.710;100.604;2024-02-28T04:45:43;101100.53;;;45.75;28.24
76095;BME280;64821;13.710;100.604;2024-02-28T04:46:48;101099.75;;;45.75;28.20
76095;BME280;64821;13.710;100.604;2024-02-28T04:47:52;101106.56;;;45.74;28.34
76095;BME280;64821;13.710;100.604;2024-02-28T04:48:56;101094.16;;;45.75;28.24
76095;BME280;64821;13.710;100.604;2024-02-28T04:50:00;101096.94;;;45.78;27.85
76095;BME280;64821;13.710;100.604;2024-02-28T04:51:04;101095.34;;;45.77;28.08
76095;BME280;64821;13.710;100.604;2024-02-28T04:52:08;101094.53;;;45.77;28.06
76095;BME280;64821;13.710;100.604;2024-02-28T04:53:14;101088.56;;;45.75;27.46
76095;BME280;64821;13.710;100.604;2024-02-28T04:54:18;101086.97;;;45.74;27.97
76095;BME280;64821;13.710;100.604;2024-02-28T04:55:22;101084.56;;;45.76;28.15
76095;BME280;64821;13.710;100.604;2024-02-28T04:56:26;101091.34;;;45.75;27.74
76095;BME280;64821;13.710;100.604;2024-02-28T04:57:30;101088.94;;;45.77;27.93
76095;BME280;64821;13.710;100.604;2024-02-28T04:58:35;101090.19;;;45.72;28.01
76095;BME280;64821;13.710;100.604;2024-02-28T04:59:39;101088.97;;;45.73;28.03
76095;BME280;64821;13.710;100.604;2024-02-28T05:00:44;101078.59;;;45.70;27.73
76095;BME280;64821;13.710;100.604;2024-02-28T05:01:49;101061.41;;;45.64;28.17
76095;BME280;64821;13.710;100.604;2024-02-28T05:02:53;101070.59;;;45.65;28.18
76095;BME280;64821;13.710;100.604;2024-02-28T05:03:57;101079.75;;;45.76;27.84
76095;BME280;64821;13.710;100.604;2024-02-28T05:05:01;101069.00;;;45.67;28.02
76095;BME280;64821;13.710;100.604;2024-02-28T05:06:05;101077.78;;;45.73;27.99
76095;BME280;64821;13.710;100.604;2024-02-28T05:07:10;101075.41;;;45.64;27.84
76095;BME280;64821;13.710;100.604;2024-02-28T05:08:15;101051.84;;;45.55;28.11
76095;BME280;64821;13.710;100.604;2024-02-28T05:09:20;101034.72;;;45.42;28.23
76095;BME280;64821;13.710;100.604;2024-02-28T05:10:24;101073.34;;;45.79;27.62
76095;BME280;64821;13.710;100.604;2024-02-28T05:11:28;101062.53;;;45.88;27.77
76095;BME280;64821;13.710;100.604;2024-02-28T05:12:32;101064.06;;;45.96;27.96
76095;BME280;64821;13.710;100.604;2024-02-28T05:13:36;101059.19;;;46.11;27.65
76095;BME280;64821;13.710;100.604;2024-02-28T05:14:40;101055.97;;;46.13;27.45
76095;BME280;64821;13.710;100.604;2024-02-28T05:15:44;101052.00;;;46.06;27.79
76095;BME280;64821;13.710;100.604;2024-02-28T05:16:49;101040.72;;;46.21;27.16
76095;BME280;64821;13.710;100.604;2024-02-28T05:17:53;101042.28;;;46.29;27.45
76095;BME280;64821;13.710;100.604;2024-02-28T05:18:57;101040.53;;;46.46;27.54
76095;BME280;64821;13.710;100.604;2024-02-28T05:20:01;101034.09;;;46.52;27.41
76095;BME280;64821;13.710;100.604;2024-02-28T05:21:06;101037.22;;;46.58;27.42
76095;BME280;64821;13.710;100.604;2024-02-28T05:22:10;101031.59;;;46.61;26.92
76095;BME280;64821;13.710;100.604;2024-02-28T05:23:15;101035.94;;;46.69;26.58
76095;BME280;64821;13.710;100.604;2024-02-28T05:24:20;101017.53;;;46.68;26.81
76095;BME280;64821;13.710;100.604;2024-02-28T05:25:24;101023.06;;;46.75;26.66
76095;BME280;64821;13.710;100.604;2024-02-28T05:26:28;101026.25;;;46.77;27.33
76095;BME280;64821;13.710;100.604;2024-02-28T05:27:32;101025.41;;;46.81;26.69
76095;BME280;64821;13.710;100.604;2024-02-28T05:28:36;101021.28;;;46.92;26.83